sensor_id;sensor_type;location;lat;lon;timestamp;P1;durP1;ratioP1;P2;durP2;ratioP2
4248;SDS011;8404;48.752;12.922;2022-12-15T00:00:00;44.25;;;25.48;;
4248;SDS011;8404;48.752;12.922;2022-12-15T00:02:46;44.90;;;26.48;;
4248;SDS011;8404;48.752;12.922;2022-12-15T00:05:32;43.42;;;24.52;;
4248;SDS011;8404;48.752;12.922;2022-12-15T00:08:17;61.33;;;33.13;;
4248;SDS011;8404;48.752;12.922;2022-12-15T00:11:03;39.28;;;23.50;;
4248;SDS011;8404;48.752;12.922;2022-12-15T00:13:50;43.97;;;25.20;;
4248;SDS011;8404;48.752;12.922;2022-12-15T00:16:36;44.13;;;24.48;;
4248;SDS011;8404;48.752;12.922;2022-12-15T00:19:21;42.72;;;25.70;;
4248;SDS011;8404;48.752;12.922;2022-12-15T00:22:07;39.08;;;24.95;;
4248;SDS011;8404;48.752;12.922;2022-12-15T00:24:52;41.65;;;24.35;;
4248;SDS011;8404;48.752;12.922;2022-12-15T00:27:38;39.78;;;24.40;;
4248;SDS011;8404;48.752;12.922;2022-12-15T00:30:25;39.90;;;25.40;;
4248;SDS011;8404;48.752;12.922;2022-12-15T00:33:15;46.55;;;24.58;;
4248;SDS011;8404;48.752;12.922;2022-12-15T00:36:00;43.70;;;24.58;;
4248;SDS011;8404;48.752;12.922;2022-12-15T00:38:46;39.70;;;25.90;;
4248;SDS011;8404;48.752;12.922;2022-12-15T00:41:15;41.78;;;24.90;;
4248;SDS011;8404;48.752;12.922;2022-12-15T00:43:44;38.40;;;23.90;;
4248;SDS011;8404;48.752;12.922;2022-12-15T00:46:16;46.53;;;26.17;;
4248;SDS011;8404;48.752;12.922;2022-12-15T00:49:02;44.38;;;23.38;;
4248;SDS011;8404;48.752;12.922;2022-12-15T00:51:50;39.05;;;23.83;;
4248;SDS011;8404;48.752;12.922;2022-12-15T00:54:36;44.47;;;25.77;;
4248;SDS011;8404;48.752;12.922;2022-12-15T00:57:21;39.78;;;24.00;;
4248;SDS011;8404;48.752;12.922;2022-12-15T01:00:07;43.58;;;26.08;;
4248;SDS011;8404;48.752;12.922;2022-12-15T01:02:55;44.72;;;26.17;;
4248;SDS011;8404;48.752;12.922;2022-12-15T01:05:41;41.03;;;23.90;;
4248;SDS011;8404;48.752;12.922;2022-12-15T01:08:27;48.08;;;26.48;;
4248;SDS011;8404;48.752;12.922;2022-12-15T01:11:13;37.50;;;23.42;;
4248;SDS011;8404;48.752;12.922;2022-12-15T01:13:59;42.42;;;23.88;;
4248;SDS011;8404;48.752;12.922;2022-12-15T01:16:44;43.30;;;23.08;;
4248;SDS011;8404;48.752;12.922;2022-12-15T01:19:31;41.45;;;23.70;;
4248;SDS011;8404;48.752;12.922;2022-12-15T01:22:16;47.15;;;25.38;;
4248;SDS011;8404;48.752;12.922;2022-12-15T01:24:45;42.05;;;23.92;;
4248;SDS011;8404;48.752;12.922;2022-12-15T01:27:13;43.88;;;26.60;;
4248;SDS011;8404;48.752;12.922;2022-12-15T01:29:41;40.75;;;24.98;;
4248;SDS011;8404;48.752;12.922;2022-12-15T01:32:09;42.88;;;24.95;;
4248;SDS011;8404;48.752;12.922;2022-12-15T01:34:39;43.15;;;25.67;;
4248;SDS011;8404;48.752;12.922;2022-12-15T01:37:07;43.05;;;24.05;;
4248;SDS011;8404;48.752;12.922;2022-12-15T01:39:36;42.65;;;25.58;;
4248;SDS011;8404;48.752;12.922;2022-12-15T01:42:21;45.58;;;27.35;;
4248;SDS011;8404;48.752;12.922;2022-12-15T01:44:50;42.40;;;24.15;;
4248;SDS011;8404;48.752;12.922;2022-12-15T01:47:19;49.65;;;28.38;;
4248;SDS011;8404;48.752;12.922;2022-12-15T01:49:52;46.33;;;27.23;;
4248;SDS011;8404;48.752;12.922;2022-12-15T01:52:21;49.85;;;28.88;;
4248;SDS011;8404;48.752;12.922;2022-12-15T01:54:50;46.30;;;25.60;;
4248;SDS011;8404;48.752;12.922;2022-12-15T01:57:24;52.38;;;29.75;;
4248;SDS011;8404;48.752;12.922;2022-12-15T01:59:56;47.03;;;26.75;;
4248;SDS011;8404;48.752;12.922;2022-12-15T02:02:28;47.63;;;27.40;;
4248;SDS011;8404;48.752;12.922;2022-12-15T02:05:07;47.50;;;27.15;;
4248;SDS011;8404;48.752;12.922;2022-12-15T02:07:35;50.05;;;26.45;;
4248;SDS011;8404;48.752;12.922;2022-12-15T02:10:04;45.13;;;25.70;;
4248;SDS011;8404;48.752;12.922;2022-12-15T02:12:36;48.65;;;26.42;;
4248;SDS011;8404;48.752;12.922;2022-12-15T02:15:15;43.10;;;26.05;;
4248;SDS011;8404;48.752;12.922;2022-12-15T02:17:49;46.47;;;26.17;;
4248;SDS011;8404;48.752;12.922;2022-12-15T02:26:22;41.20;;;24.55;;
4248;SDS011;8404;48.752;12.922;2022-12-15T02:29:27;43.58;;;26.23;;
4248;SDS011;8404;48.752;12.922;2022-12-15T02:32:15;48.42;;;26.08;;
4248;SDS011;8404;48.752;12.922;2022-12-15T02:34:50;53.65;;;26.83;;
4248;SDS011;8404;48.752;12.922;2022-12-15T02:37:23;47.80;;;25.73;;
4248;SDS011;8404;48.752;12.922;2022-12-15T02:39:55;45.97;;;25.98;;
4248;SDS011;8404;48.752;12.922;2022-12-15T02:42:24;48.58;;;25.90;;
4248;SDS011;8404;48.752;12.922;2022-12-15T02:44:55;45.20;;;25.20;;
4248;SDS011;8404;48.752;12.922;2022-12-15T02:47:30;50.20;;;26.15;;
4248;SDS011;8404;48.752;12.922;2022-12-15T02:50:10;46.30;;;26.45;;
4248;SDS011;8404;48.752;12.922;2022-12-15T02:52:52;42.95;;;25.90;;
4248;SDS011;8404;48.752;12.922;2022-12-15T02:55:29;45.58;;;27.25;;
4248;SDS011;8404;48.752;12.922;2022-12-15T02:58:05;51.10;;;26.70;;
4248;SDS011;8404;48.752;12.922;2022-12-15T03:00:39;44.25;;;24.75;;
4248;SDS011;8404;48.752;12.922;2022-12-15T03:03:13;48.40;;;27.50;;
4248;SDS011;8404;48.752;12.922;2022-12-15T03:05:46;47.53;;;26.27;;
4248;SDS011;8404;48.752;12.922;2022-12-15T03:08:14;46.05;;;25.58;;
4248;SDS011;8404;48.752;12.922;2022-12-15T03:10:42;48.95;;;27.55;;
4248;SDS011;8404;48.752;12.922;2022-12-15T03:13:10;46.17;;;26.33;;
4248;SDS011;8404;48.752;12.922;2022-12-15T03:15:39;50.25;;;26.85;;
4248;SDS011;8404;48.752;12.922;2022-12-15T03:18:07;44.08;;;26.45;;
4248;SDS011;8404;48.752;12.922;2022-12-15T03:20:37;49.60;;;26.92;;
4248;SDS011;8404;48.752;12.922;2022-12-15T03:23:05;49.00;;;26.85;;
4248;SDS011;8404;48.752;12.922;2022-12-15T03:25:33;47.13;;;26.73;;
4248;SDS011;8404;48.752;12.922;2022-12-15T03:28:02;49.60;;;28.60;;
4248;SDS011;8404;48.752;12.922;2022-12-15T03:30:30;50.80;;;28.35;;
4248;SDS011;8404;48.752;12.922;2022-12-15T03:32:58;54.88;;;28.00;;
4248;SDS011;8404;48.752;12.922;2022-12-15T03:35:26;48.03;;;26.33;;
4248;SDS011;8404;48.752;12.922;2022-12-15T03:37:55;48.65;;;26.08;;
4248;SDS011;8404;48.752;12.922;2022-12-15T03:40:23;41.97;;;24.88;;
4248;SDS011;8404;48.752;12.922;2022-12-15T03:42:51;50.05;;;27.00;;
4248;SDS011;8404;48.752;12.922;2022-12-15T03:45:21;47.50;;;26.38;;
4248;SDS011;8404;48.752;12.922;2022-12-15T03:47:50;50.88;;;26.77;;
4248;SDS011;8404;48.752;12.922;2022-12-15T03:50:19;50.72;;;28.20;;
4248;SDS011;8404;48.752;12.922;2022-12-15T03:52:49;50.72;;;26.52;;
4248;SDS011;8404;48.752;12.922;2022-12-15T03:55:20;49.47;;;28.35;;
4248;SDS011;8404;48.752;12.922;2022-12-15T03:57:48;47.10;;;26.05;;
4248;SDS011;8404;48.752;12.922;2022-12-15T04:00:17;49.33;;;24.58;;
4248;SDS011;8404;48.752;12.922;2022-12-15T04:02:46;50.53;;;27.17;;
4248;SDS011;8404;48.752;12.922;2022-12-15T04:05:16;47.13;;;26.77;;
4248;SDS011;8404;48.752;12.922;2022-12-15T04:07:46;42.75;;;25.35;;
4248;SDS011;8404;48.752;12.922;2022-12-15T04:10:14;44.88;;;25.85;;
4248;SDS011;8404;48.752;12.922;2022-12-15T04:12:44;52.42;;;27.70;;
4248;SDS011;8404;48.752;12.922;2022-12-15T04:15:12;44.58;;;25.67;;
4248;SDS011;8404;48.752;12.922;2022-12-15T04:17:41;47.63;;;26.17;;
4248;SDS011;8404;48.752;12.922;2022-12-15T04:20:09;49.22;;;27.05;;
4248;SDS011;8404;48.752;12.922;2022-12-15T04:22:38;44.65;;;24.88;;
4248;SDS011;8404;48.752;12.922;2022-12-15T04:25:08;47.30;;;25.75;;
4248;SDS011;8404;48.752;12.922;2022-12-15T04:27:57;49.33;;;26.20;;
4248;SDS011;8404;48.752;12.922;2022-12-15T04:30:44;52.63;;;26.52;;
4248;SDS011;8404;48.752;12.922;2022-12-15T04:33:33;48.10;;;24.38;;
4248;SDS011;8404;48.752;12.922;2022-12-15T04:36:20;54.28;;;27.95;;
4248;SDS011;8404;48.752;12.922;2022-12-15T04:39:06;50.78;;;27.17;;
4248;SDS011;8404;48.752;12.922;2022-12-15T04:41:53;43.10;;;24.90;;
4248;SDS011;8404;48.752;12.922;2022-12-15T04:44:42;40.63;;;23.58;;
4248;SDS011;8404;48.752;12.922;2022-12-15T04:47:29;44.40;;;25.58;;
4248;SDS011;8404;48.752;12.922;2022-12-15T04:50:14;46.15;;;25.92;;
4248;SDS011;8404;48.752;12.922;2022-12-15T04:53:05;49.88;;;26.10;;
4248;SDS011;8404;48.752;12.922;2022-12-15T04:55:52;46.47;;;26.80;;
4248;SDS011;8404;48.752;12.922;2022-12-15T04:58:44;49.65;;;25.33;;
4248;SDS011;8404;48.752;12.922;2022-12-15T05:01:31;50.50;;;26.52;;
4248;SDS011;8404;48.752;12.922;2022-12-15T05:04:17;45.88;;;26.63;;
4248;SDS011;8404;48.752;12.922;2022-12-15T05:07:03;52.50;;;27.80;;
4248;SDS011;8404;48.752;12.922;2022-12-15T05:09:48;47.45;;;25.58;;
4248;SDS011;8404;48.752;12.922;2022-12-15T05:12:40;52.10;;;26.85;;
4248;SDS011;8404;48.752;12.922;2022-12-15T05:15:26;54.13;;;26.60;;
4248;SDS011;8404;48.752;12.922;2022-12-15T05:18:13;49.75;;;26.95;;
4248;SDS011;8404;48.752;12.922;2022-12-15T05:20:58;56.95;;;28.92;;
4248;SDS011;8404;48.752;12.922;2022-12-15T05:23:44;48.75;;;25.27;;
4248;SDS011;8404;48.752;12.922;2022-12-15T05:26:30;49.33;;;26.38;;
4248;SDS011;8404;48.752;12.922;2022-12-15T05:29:18;45.85;;;25.17;;
4248;SDS011;8404;48.752;12.922;2022-12-15T05:32:05;50.22;;;26.05;;
4248;SDS011;8404;48.752;12.922;2022-12-15T05:34:35;49.20;;;25.95;;
4248;SDS011;8404;48.752;12.922;2022-12-15T05:37:04;44.25;;;23.95;;
4248;SDS011;8404;48.752;12.922;2022-12-15T05:39:36;54.92;;;25.52;;
4248;SDS011;8404;48.752;12.922;2022-12-15T05:42:04;54.08;;;27.67;;
4248;SDS011;8404;48.752;12.922;2022-12-15T05:44:33;51.67;;;26.23;;
4248;SDS011;8404;48.752;12.922;2022-12-15T05:47:01;50.67;;;26.75;;
4248;SDS011;8404;48.752;12.922;2022-12-15T05:49:30;48.72;;;25.95;;
4248;SDS011;8404;48.752;12.922;2022-12-15T05:52:00;52.53;;;26.83;;
4248;SDS011;8404;48.752;12.922;2022-12-15T05:54:29;49.78;;;27.48;;
4248;SDS011;8404;48.752;12.922;2022-12-15T05:56:57;48.58;;;27.45;;
4248;SDS011;8404;48.752;12.922;2022-12-15T05:59:25;56.08;;;28.73;;
4248;SDS011;8404;48.752;12.922;2022-12-15T06:01:53;55.67;;;27.88;;
4248;SDS011;8404;48.752;12.922;2022-12-15T06:04:21;55.80;;;27.15;;
4248;SDS011;8404;48.752;12.922;2022-12-15T06:06:49;56.08;;;28.25;;
4248;SDS011;8404;48.752;12.922;2022-12-15T06:09:19;53.67;;;29.23;;
4248;SDS011;8404;48.752;12.922;2022-12-15T06:11:47;52.03;;;26.83;;
4248;SDS011;8404;48.752;12.922;2022-12-15T06:14:15;45.38;;;26.75;;
4248;SDS011;8404;48.752;12.922;2022-12-15T06:16:43;47.78;;;26.10;;
4248;SDS011;8404;48.752;12.922;2022-12-15T06:19:17;62.90;;;29.58;;
4248;SDS011;8404;48.752;12.922;2022-12-15T06:21:46;56.97;;;30.27;;
4248;SDS011;8404;48.752;12.922;2022-12-15T06:24:14;53.78;;;28.15;;
4248;SDS011;8404;48.752;12.922;2022-12-15T06:26:44;57.60;;;27.42;;
4248;SDS011;8404;48.752;12.922;2022-12-15T06:29:15;60.78;;;31.02;;
4248;SDS011;8404;48.752;12.922;2022-12-15T06:31:43;61.72;;;30.83;;
4248;SDS011;8404;48.752;12.922;2022-12-15T06:34:12;56.63;;;29.42;;
4248;SDS011;8404;48.752;12.922;2022-12-15T06:36:41;67.32;;;32.30;;
4248;SDS011;8404;48.752;12.922;2022-12-15T06:39:11;53.25;;;27.70;;
4248;SDS011;8404;48.752;12.922;2022-12-15T06:41:40;60.63;;;27.48;;
4248;SDS011;8404;48.752;12.922;2022-12-15T06:44:12;60.67;;;29.80;;
4248;SDS011;8404;48.752;12.922;2022-12-15T06:46:41;54.90;;;28.35;;
4248;SDS011;8404;48.752;12.922;2022-12-15T06:49:11;54.40;;;28.35;;
4248;SDS011;8404;48.752;12.922;2022-12-15T06:51:40;64.40;;;29.25;;
4248;SDS011;8404;48.752;12.922;2022-12-15T06:54:09;57.13;;;28.05;;
4248;SDS011;8404;48.752;12.922;2022-12-15T06:56:37;53.35;;;27.00;;
4248;SDS011;8404;48.752;12.922;2022-12-15T06:59:06;60.78;;;28.88;;
4248;SDS011;8404;48.752;12.922;2022-12-15T07:01:36;66.00;;;32.42;;
4248;SDS011;8404;48.752;12.922;2022-12-15T07:04:04;55.03;;;29.20;;
4248;SDS011;8404;48.752;12.922;2022-12-15T07:06:33;58.28;;;29.23;;
4248;SDS011;8404;48.752;12.922;2022-12-15T07:09:03;59.85;;;28.80;;
4248;SDS011;8404;48.752;12.922;2022-12-15T07:11:33;60.40;;;30.25;;
4248;SDS011;8404;48.752;12.922;2022-12-15T07:14:02;66.07;;;33.65;;
4248;SDS011;8404;48.752;12.922;2022-12-15T07:16:30;70.85;;;32.88;;
4248;SDS011;8404;48.752;12.922;2022-12-15T07:19:01;59.47;;;28.88;;
4248;SDS011;8404;48.752;12.922;2022-12-15T07:21:29;61.25;;;29.20;;
4248;SDS011;8404;48.752;12.922;2022-12-15T07:23:57;60.40;;;30.00;;
4248;SDS011;8404;48.752;12.922;2022-12-15T07:26:27;58.53;;;28.85;;
4248;SDS011;8404;48.752;12.922;2022-12-15T07:28:55;54.08;;;27.85;;
4248;SDS011;8404;48.752;12.922;2022-12-15T07:31:23;58.45;;;31.95;;
4248;SDS011;8404;48.752;12.922;2022-12-15T07:33:52;63.80;;;30.48;;
4248;SDS011;8404;48.752;12.922;2022-12-15T07:36:22;54.78;;;29.95;;
4248;SDS011;8404;48.752;12.922;2022-12-15T07:38:50;65.70;;;33.38;;
4248;SDS011;8404;48.752;12.922;2022-12-15T07:41:18;57.38;;;30.25;;
4248;SDS011;8404;48.752;12.922;2022-12-15T07:43:47;56.65;;;29.65;;
4248;SDS011;8404;48.752;12.922;2022-12-15T07:46:15;59.42;;;31.35;;
4248;SDS011;8404;48.752;12.922;2022-12-15T07:48:43;64.80;;;30.55;;
4248;SDS011;8404;48.752;12.922;2022-12-15T07:51:16;52.00;;;28.50;;
4248;SDS011;8404;48.752;12.922;2022-12-15T07:53:48;54.55;;;28.95;;
4248;SDS011;8404;48.752;12.922;2022-12-15T07:56:17;58.22;;;28.52;;
4248;SDS011;8404;48.752;12.922;2022-12-15T07:58:46;58.78;;;27.20;;
4248;SDS011;8404;48.752;12.922;2022-12-15T08:01:14;59.92;;;29.75;;
4248;SDS011;8404;48.752;12.922;2022-12-15T08:03:43;63.28;;;32.15;;
4248;SDS011;8404;48.752;12.922;2022-12-15T08:06:12;64.22;;;29.52;;
4248;SDS011;8404;48.752;12.922;2022-12-15T08:08:42;61.70;;;30.55;;
4248;SDS011;8404;48.752;12.922;2022-12-15T08:11:18;59.80;;;29.27;;
4248;SDS011;8404;48.752;12.922;2022-12-15T08:13:48;55.70;;;27.52;;
4248;SDS011;8404;48.752;12.922;2022-12-15T08:16:36;52.92;;;27.52;;
4248;SDS011;8404;48.752;12.922;2022-12-15T08:19:05;56.88;;;28.27;;
4248;SDS011;8404;48.752;12.922;2022-12-15T08:21:35;57.92;;;29.40;;
4248;SDS011;8404;48.752;12.922;2022-12-15T08:24:06;62.03;;;29.80;;
4248;SDS011;8404;48.752;12.922;2022-12-15T08:26:36;66.95;;;33.08;;
4248;SDS011;8404;48.752;12.922;2022-12-15T08:29:05;61.80;;;31.13;;
4248;SDS011;8404;48.752;12.922;2022-12-15T08:31:55;68.35;;;37.00;;
4248;SDS011;8404;48.752;12.922;2022-12-15T08:34:23;70.13;;;34.85;;
4248;SDS011;8404;48.752;12.922;2022-12-15T08:36:51;57.03;;;29.30;;
4248;SDS011;8404;48.752;12.922;2022-12-15T08:39:19;62.42;;;29.60;;
4248;SDS011;8404;48.752;12.922;2022-12-15T08:41:48;59.28;;;29.50;;
4248;SDS011;8404;48.752;12.922;2022-12-15T08:44:16;62.42;;;31.00;;
4248;SDS011;8404;48.752;12.922;2022-12-15T08:46:45;58.80;;;32.03;;
4248;SDS011;8404;48.752;12.922;2022-12-15T08:49:13;61.80;;;29.77;;
4248;SDS011;8404;48.752;12.922;2022-12-15T08:51:47;65.38;;;31.20;;
4248;SDS011;8404;48.752;12.922;2022-12-15T08:54:16;60.28;;;29.83;;
4248;SDS011;8404;48.752;12.922;2022-12-15T08:56:45;54.92;;;29.58;;
4248;SDS011;8404;48.752;12.922;2022-12-15T08:59:15;57.90;;;30.33;;
4248;SDS011;8404;48.752;12.922;2022-12-15T09:01:44;60.80;;;31.33;;
4248;SDS011;8404;48.752;12.922;2022-12-15T09:04:13;61.53;;;31.35;;
4248;SDS011;8404;48.752;12.922;2022-12-15T09:06:41;56.40;;;29.13;;
4248;SDS011;8404;48.752;12.922;2022-12-15T09:09:16;62.75;;;31.40;;
4248;SDS011;8404;48.752;12.922;2022-12-15T09:11:44;54.38;;;29.40;;
4248;SDS011;8404;48.752;12.922;2022-12-15T09:14:12;56.45;;;29.83;;
4248;SDS011;8404;48.752;12.922;2022-12-15T09:16:42;65.05;;;36.05;;
4248;SDS011;8404;48.752;12.922;2022-12-15T09:19:10;55.50;;;31.42;;
4248;SDS011;8404;48.752;12.922;2022-12-15T09:21:38;61.25;;;31.65;;
4248;SDS011;8404;48.752;12.922;2022-12-15T09:24:11;56.40;;;31.67;;
4248;SDS011;8404;48.752;12.922;2022-12-15T09:26:50;59.60;;;31.25;;
4248;SDS011;8404;48.752;12.922;2022-12-15T09:29:19;60.47;;;30.65;;
4248;SDS011;8404;48.752;12.922;2022-12-15T09:31:47;60.70;;;29.60;;
4248;SDS011;8404;48.752;12.922;2022-12-15T09:34:15;57.08;;;30.08;;
4248;SDS011;8404;48.752;12.922;2022-12-15T09:36:43;57.47;;;31.27;;
4248;SDS011;8404;48.752;12.922;2022-12-15T09:39:11;55.38;;;30.73;;
4248;SDS011;8404;48.752;12.922;2022-12-15T09:41:41;58.33;;;31.33;;
4248;SDS011;8404;48.752;12.922;2022-12-15T09:44:20;55.28;;;30.75;;
4248;SDS011;8404;48.752;12.922;2022-12-15T09:46:54;52.53;;;30.13;;
4248;SDS011;8404;48.752;12.922;2022-12-15T09:52:22;52.35;;;28.55;;
4248;SDS011;8404;48.752;12.922;2022-12-15T09:54:52;63.72;;;30.73;;
4248;SDS011;8404;48.752;12.922;2022-12-15T09:57:25;57.92;;;29.55;;
4248;SDS011;8404;48.752;12.922;2022-12-15T10:00:04;52.03;;;29.15;;
4248;SDS011;8404;48.752;12.922;2022-12-15T10:02:55;49.85;;;29.80;;
4248;SDS011;8404;48.752;12.922;2022-12-15T10:05:47;58.72;;;32.60;;
4248;SDS011;8404;48.752;12.922;2022-12-15T10:08:45;61.50;;;32.53;;
4248;SDS011;8404;48.752;12.922;2022-12-15T10:11:20;54.42;;;30.20;;
4248;SDS011;8404;48.752;12.922;2022-12-15T10:14:03;57.50;;;30.67;;
4248;SDS011;8404;48.752;12.922;2022-12-15T10:16:42;75.72;;;43.50;;
4248;SDS011;8404;48.752;12.922;2022-12-15T10:19:18;53.63;;;27.70;;
4248;SDS011;8404;48.752;12.922;2022-12-15T10:21:53;60.00;;;34.35;;
4248;SDS011;8404;48.752;12.922;2022-12-15T10:24:22;55.22;;;31.55;;
4248;SDS011;8404;48.752;12.922;2022-12-15T10:27:19;58.42;;;29.52;;
4248;SDS011;8404;48.752;12.922;2022-12-15T10:29:58;46.92;;;27.35;;
4248;SDS011;8404;48.752;12.922;2022-12-15T10:32:30;55.50;;;29.40;;
4248;SDS011;8404;48.752;12.922;2022-12-15T10:35:11;56.55;;;31.48;;
4248;SDS011;8404;48.752;12.922;2022-12-15T10:37:42;59.13;;;30.65;;
4248;SDS011;8404;48.752;12.922;2022-12-15T10:40:13;51.47;;;28.08;;
4248;SDS011;8404;48.752;12.922;2022-12-15T10:42:45;53.90;;;28.95;;
4248;SDS011;8404;48.752;12.922;2022-12-15T10:45:27;59.25;;;32.10;;
4248;SDS011;8404;48.752;12.922;2022-12-15T10:48:02;59.70;;;31.73;;
4248;SDS011;8404;48.752;12.922;2022-12-15T10:50:32;55.22;;;30.90;;
4248;SDS011;8404;48.752;12.922;2022-12-15T10:53:01;59.25;;;30.65;;
4248;SDS011;8404;48.752;12.922;2022-12-15T10:55:36;56.47;;;29.80;;
4248;SDS011;8404;48.752;12.922;2022-12-15T10:58:13;60.60;;;31.98;;
4248;SDS011;8404;48.752;12.922;2022-12-15T11:00:43;55.40;;;30.73;;
4248;SDS011;8404;48.752;12.922;2022-12-15T11:03:21;56.53;;;30.98;;
4248;SDS011;8404;48.752;12.922;2022-12-15T11:05:52;61.05;;;29.55;;
4248;SDS011;8404;48.752;12.922;2022-12-15T11:08:21;55.15;;;31.38;;
4248;SDS011;8404;48.752;12.922;2022-12-15T11:10:51;53.88;;;29.10;;
4248;SDS011;8404;48.752;12.922;2022-12-15T11:13:38;62.10;;;32.00;;
4248;SDS011;8404;48.752;12.922;2022-12-15T11:16:13;54.00;;;30.15;;
4248;SDS011;8404;48.752;12.922;2022-12-15T11:18:45;54.92;;;31.05;;
4248;SDS011;8404;48.752;12.922;2022-12-15T11:21:18;51.17;;;28.80;;
4248;SDS011;8404;48.752;12.922;2022-12-15T11:23:57;55.67;;;29.35;;
4248;SDS011;8404;48.752;12.922;2022-12-15T11:26:34;54.55;;;30.35;;
4248;SDS011;8404;48.752;12.922;2022-12-15T11:29:14;54.97;;;29.00;;
4248;SDS011;8404;48.752;12.922;2022-12-15T11:31:50;58.15;;;31.83;;
4248;SDS011;8404;48.752;12.922;2022-12-15T11:34:22;59.60;;;32.15;;
4248;SDS011;8404;48.752;12.922;2022-12-15T11:36:55;55.80;;;31.50;;
4248;SDS011;8404;48.752;12.922;2022-12-15T11:39:45;52.58;;;30.33;;
4248;SDS011;8404;48.752;12.922;2022-12-15T11:42:27;57.42;;;31.83;;
4248;SDS011;8404;48.752;12.922;2022-12-15T11:45:08;59.20;;;32.95;;
4248;SDS011;8404;48.752;12.922;2022-12-15T11:47:45;65.25;;;33.25;;
4248;SDS011;8404;48.752;12.922;2022-12-15T11:50:20;65.68;;;35.88;;
4248;SDS011;8404;48.752;12.922;2022-12-15T11:52:59;66.22;;;34.72;;
4248;SDS011;8404;48.752;12.922;2022-12-15T11:55:40;62.08;;;32.88;;
4248;SDS011;8404;48.752;12.922;2022-12-15T11:58:19;58.55;;;30.65;;
4248;SDS011;8404;48.752;12.922;2022-12-15T12:00:59;59.70;;;30.05;;
4248;SDS011;8404;48.752;12.922;2022-12-15T12:03:35;53.88;;;28.20;;
4248;SDS011;8404;48.752;12.922;2022-12-15T12:06:15;57.97;;;31.40;;
4248;SDS011;8404;48.752;12.922;2022-12-15T12:08:50;64.63;;;33.72;;
4248;SDS011;8404;48.752;12.922;2022-12-15T12:11:27;57.97;;;31.42;;
4248;SDS011;8404;48.752;12.922;2022-12-15T12:14:05;58.90;;;30.90;;
4248;SDS011;8404;48.752;12.922;2022-12-15T12:16:42;53.17;;;28.98;;
4248;SDS011;8404;48.752;12.922;2022-12-15T12:19:17;57.40;;;31.17;;
4248;SDS011;8404;48.752;12.922;2022-12-15T12:21:52;58.03;;;31.08;;
4248;SDS011;8404;48.752;12.922;2022-12-15T12:24:28;59.05;;;31.88;;
4248;SDS011;8404;48.752;12.922;2022-12-15T12:26:59;59.42;;;30.63;;
4248;SDS011;8404;48.752;12.922;2022-12-15T12:29:32;59.67;;;34.67;;
4248;SDS011;8404;48.752;12.922;2022-12-15T12:32:03;55.22;;;30.88;;
4248;SDS011;8404;48.752;12.922;2022-12-15T12:34:38;53.90;;;31.02;;
4248;SDS011;8404;48.752;12.922;2022-12-15T12:37:20;52.38;;;30.17;;
4248;SDS011;8404;48.752;12.922;2022-12-15T12:39:52;52.28;;;29.75;;
4248;SDS011;8404;48.752;12.922;2022-12-15T12:42:29;57.92;;;29.83;;
4248;SDS011;8404;48.752;12.922;2022-12-15T12:45:04;53.05;;;29.73;;
4248;SDS011;8404;48.752;12.922;2022-12-15T12:47:33;59.90;;;32.53;;
4248;SDS011;8404;48.752;12.922;2022-12-15T12:50:04;58.28;;;32.75;;
4248;SDS011;8404;48.752;12.922;2022-12-15T12:52:45;53.08;;;31.45;;
4248;SDS011;8404;48.752;12.922;2022-12-15T12:55:21;58.63;;;33.10;;
4248;SDS011;8404;48.752;12.922;2022-12-15T12:57:52;55.33;;;31.52;;
4248;SDS011;8404;48.752;12.922;2022-12-15T13:00:22;49.25;;;28.92;;
4248;SDS011;8404;48.752;12.922;2022-12-15T13:02:54;56.92;;;32.15;;
4248;SDS011;8404;48.752;12.922;2022-12-15T13:05:36;55.65;;;29.42;;
4248;SDS011;8404;48.752;12.922;2022-12-15T13:08:17;59.53;;;33.50;;
4248;SDS011;8404;48.752;12.922;2022-12-15T13:10:53;57.47;;;32.78;;
4248;SDS011;8404;48.752;12.922;2022-12-15T13:13:40;57.08;;;30.45;;
4248;SDS011;8404;48.752;12.922;2022-12-15T13:16:20;53.50;;;29.50;;
4248;SDS011;8404;48.752;12.922;2022-12-15T13:18:54;53.13;;;30.20;;
4248;SDS011;8404;48.752;12.922;2022-12-15T13:24:24;50.70;;;29.00;;
4248;SDS011;8404;48.752;12.922;2022-12-15T13:27:10;54.50;;;30.23;;
4248;SDS011;8404;48.752;12.922;2022-12-15T13:29:53;54.53;;;29.98;;
4248;SDS011;8404;48.752;12.922;2022-12-15T13:32:25;55.25;;;29.98;;
4248;SDS011;8404;48.752;12.922;2022-12-15T13:34:56;58.90;;;30.63;;
4248;SDS011;8404;48.752;12.922;2022-12-15T13:37:40;60.03;;;31.40;;
4248;SDS011;8404;48.752;12.922;2022-12-15T13:40:27;56.25;;;29.65;;
4248;SDS011;8404;48.752;12.922;2022-12-15T13:43:06;54.00;;;28.90;;
4248;SDS011;8404;48.752;12.922;2022-12-15T13:45:42;52.90;;;29.05;;
4248;SDS011;8404;48.752;12.922;2022-12-15T13:48:32;49.85;;;27.52;;
4248;SDS011;8404;48.752;12.922;2022-12-15T13:51:05;52.03;;;29.70;;
4248;SDS011;8404;48.752;12.922;2022-12-15T13:53:52;53.42;;;28.40;;
4248;SDS011;8404;48.752;12.922;2022-12-15T13:56:36;60.63;;;31.23;;
4248;SDS011;8404;48.752;12.922;2022-12-15T13:59:34;57.50;;;31.63;;
4248;SDS011;8404;48.752;12.922;2022-12-15T14:02:21;55.22;;;30.35;;
4248;SDS011;8404;48.752;12.922;2022-12-15T14:05:03;48.95;;;29.23;;
4248;SDS011;8404;48.752;12.922;2022-12-15T14:07:44;58.90;;;30.30;;
4248;SDS011;8404;48.752;12.922;2022-12-15T14:10:20;61.78;;;33.80;;
4248;SDS011;8404;48.752;12.922;2022-12-15T14:12:52;59.17;;;33.45;;
4248;SDS011;8404;48.752;12.922;2022-12-15T14:15:25;57.00;;;32.35;;
4248;SDS011;8404;48.752;12.922;2022-12-15T14:17:56;55.30;;;30.65;;
4248;SDS011;8404;48.752;12.922;2022-12-15T14:20:28;58.88;;;30.40;;
4248;SDS011;8404;48.752;12.922;2022-12-15T14:22:57;53.45;;;30.35;;
4248;SDS011;8404;48.752;12.922;2022-12-15T14:25:26;54.97;;;31.35;;
4248;SDS011;8404;48.752;12.922;2022-12-15T14:27:57;55.55;;;30.00;;
4248;SDS011;8404;48.752;12.922;2022-12-15T14:30:29;51.08;;;28.85;;
4248;SDS011;8404;48.752;12.922;2022-12-15T14:32:59;62.38;;;32.20;;
4248;SDS011;8404;48.752;12.922;2022-12-15T14:35:31;61.20;;;32.65;;
4248;SDS011;8404;48.752;12.922;2022-12-15T14:38:05;59.20;;;32.53;;
4248;SDS011;8404;48.752;12.922;2022-12-15T14:40:37;65.25;;;36.60;;
4248;SDS011;8404;48.752;12.922;2022-12-15T14:43:10;59.58;;;32.83;;
4248;SDS011;8404;48.752;12.922;2022-12-15T14:45:43;57.13;;;31.13;;
4248;SDS011;8404;48.752;12.922;2022-12-15T14:48:21;57.15;;;30.90;;
4248;SDS011;8404;48.752;12.922;2022-12-15T14:51:10;71.28;;;38.08;;
4248;SDS011;8404;48.752;12.922;2022-12-15T14:53:40;82.65;;;41.97;;
4248;SDS011;8404;48.752;12.922;2022-12-15T14:56:18;78.20;;;38.25;;
4248;SDS011;8404;48.752;12.922;2022-12-15T14:58:58;82.03;;;42.10;;
4248;SDS011;8404;48.752;12.922;2022-12-15T15:01:31;74.03;;;38.95;;
4248;SDS011;8404;48.752;12.922;2022-12-15T15:04:03;84.05;;;40.28;;
4248;SDS011;8404;48.752;12.922;2022-12-15T15:06:36;97.82;;;44.85;;
4248;SDS011;8404;48.752;12.922;2022-12-15T15:09:18;74.32;;;39.70;;
4248;SDS011;8404;48.752;12.922;2022-12-15T15:11:51;73.78;;;37.15;;
4248;SDS011;8404;48.752;12.922;2022-12-15T15:14:26;71.55;;;38.33;;
4248;SDS011;8404;48.752;12.922;2022-12-15T15:17:05;90.35;;;45.78;;
4248;SDS011;8404;48.752;12.922;2022-12-15T15:19:44;60.42;;;34.15;;
4248;SDS011;8404;48.752;12.922;2022-12-15T15:22:22;63.97;;;34.10;;
4248;SDS011;8404;48.752;12.922;2022-12-15T15:25:01;75.70;;;39.90;;
4248;SDS011;8404;48.752;12.922;2022-12-15T15:27:45;64.05;;;34.25;;
4248;SDS011;8404;48.752;12.922;2022-12-15T15:30:17;58.55;;;34.88;;